Greenbrier, AR

8:15 AM CDT on May 27, 2015 (GMT -0500)
Searcy Municipal | | Change Station
CLOSE
Current Station
Airport
Location: Searcy,
Elevation: 266 ft
Nearby Weather Stations
Active Advisory: Flood Warning

Elev 266 ft 35.21 °N, 91.74 °W | Updated 19 minutes ago

Clear
Clear
70 °F
Feels Like 70 °F
N
5
Wind Variable Wind from SSW

Today
High -- | Low -- °F
--% Chance of Precip.
Yesterday
High -- | Low -- °F
Precip. -- in
5:58 AM 8:15 PM
Waxing Gibbous, 67% visible
Pressure 30.12 in
Visibility 10.0 miles
Clouds Clear
Dew Point 67 °F
Humidity 90%
Rainfall 0.00 in
Snow Depth Not available.
UV 2 out of 12
Pollen 7.40 out of 12
Air Quality Not available.
Flu Activity No Activity
METAR KSRC 271256Z AUTO 20004KT 10SM CLR 21/19 A3011 RMK AO2 SLP199 T02110194 TSNO

More Conditions Fewer Conditions

Pressure 30.12 in
Visibility 10.0 miles
Clouds Clear
Dew Point 67 °F
Humidity 90%
Rainfall 0.00 in
Snow Depth Not available.
UV 2 out of 12
Pollen 7.40 out of 12
Air Quality Not available.
Flu Activity No Activity
METAR KSRC 271256Z AUTO 20004KT 10SM CLR 21/19 A3011 RMK AO2 SLP199 T02110194 TSNO

More Conditions Fewer Conditions

10-Day Weather Forecast

Almanac

Astronomy

May. 27, 2015 Rise Set
Actual Time
Civil Twilight
Nautical Twilight
Astronomical Twilight
Moon
Length of Visible Light
Length of Day
Tomorrow will be .
, % of the Moon is Illuminated

Today's Extremes

State Highs State Lows

Community

WunderPhotos

Upload Photos

1,824,664 photos uploaded!

WunderBlogs® & News

Nearby

Air Quality

  Air Quality AQ Index Pollutant
Not available.

Snow Depth

Station Depth Elevation

Earthquake Activity

City Distance Mag. Time & Date
Minimum magnitude displayed is 2.5.

Coastal Water Temperatures

Place Temperature

Stations

Nearby Weather Stations

Station Location Temp. Windchill Dew Point Humidity Wind Precip. Elev Updated Type
                   
Flood Warning
Statement as of 2:44 AM CDT on May 27, 2015

The Flood Warning continues for
the Arkansas River at Toad Suck lock and dam tailwater.
* Until further notice... or until the warning is cancelled.
* At 2:00 am Wednesday the stage was 275.8 feet.
* Minor flooding is occurring and moderate flooding is forecast.
* Flood stage is 275.0 feet.
* Forecast... the river will continue rising to near 278.4 feet by
Thursday afternoon.
* Impacts at 278.0 feet... Lollie community affected. Additional farmlands
in Faulkner County flooded by backwater up Palarm creek and Tupelo bayou.


             Fld observed forecast 7 am
location stg stg day time Thu Fri Sat sun Mon

Arkansas River
Toad Suck 275 275.8 Wed 02 am 276.7 278.2 278.1 277.3 276.3




Lat... Lon 3483 9247 3495 9262 3504 9261 3511 9251
3501 9248 3492 9238